This is the latest recevied weather packets stored in our database for station/object YS1AHL-28. If no packets are shown the sender has not sent any weather packets the latest 10 day(s).
| Time | Temp. | Humidity | Pressure | Rain* | Wind** | Luminosity | Snow |
|---|---|---|---|---|---|---|---|
| 1787482074 | 16.11° C | 88% | 1010 hPa | 0 mm | - | - | - |
| 1787481533 | 15.56° C | 88% | 1010 hPa | 0 mm | - | - | - |
| 1787481473 | 15.56° C | 88% | 1010 hPa | 0 mm | - | - | - |
| 1787480933 | 16.11° C | 84% | 1009 hPa | 0 mm | - | - | - |
| 1787480873 | 16.11° C | 84% | 1009 hPa | 0 mm | - | - | - |
| 1787480332 | 16.11° C | 83% | 1009 hPa | 0 mm | - | - | - |
| 1787480272 | 16.11° C | 83% | 1009 hPa | 0 mm | - | - | - |
| 1787479731 | 15° C | 90% | 1009 hPa | 0 mm | - | - | - |
| 1787479671 | 15° C | 90% | 1009 hPa | 0 mm | - | - | - |
| 1787479131 | 15° C | 90% | 1010 hPa | 0 mm | - | - | - |
| 1787479071 | 15° C | 90% | 1010 hPa | 0 mm | - | - | - |
| 1787478530 | 15° C | 90% | 1010 hPa | 0 mm | - | - | - |
| 1787478470 | 15° C | 90% | 1010 hPa | 0 mm | - | - | - |
| 1787477930 | 15° C | 89% | 1010 hPa | 0 mm | - | - | - |
| 1787477869 | 15° C | 89% | 1010 hPa | 0 mm | - | - | - |
| 1787477329 | 15.56° C | 88% | 1010 hPa | 0 mm | - | - | - |
| 1787477269 | 15.56° C | 88% | 1010 hPa | 0 mm | - | - | - |
| 1787476729 | 15.56° C | 89% | 1010 hPa | 0 mm | - | - | - |
| 1787476668 | 15.56° C | 89% | 1010 hPa | 0 mm | - | - | - |
| 1787476128 | 15° C | 89% | 1010 hPa | 0 mm | - | - | - |
| 1787476068 | 15° C | 89% | 1010 hPa | 0 mm | - | - | - |
| 1787475528 | 16.67° C | 82% | 1010 hPa | 0 mm | - | - | - |
| 1787475468 | 16.67° C | 82% | 1010 hPa | 0 mm | - | - | - |
| 1787474927 | 15.56° C | 88% | 1010 hPa | 0 mm | - | - | - |
| 1787474867 | 15.56° C | 88% | 1010 hPa | 0 mm | - | - | - |
* Rain latest hour (hover to see other rain measurements)
** Current wind speed in m/s (hover to see current wind gust speed)